Terminal Aerodrome Forecast
Issued by NWS

Home | Current Version | Previous Version | Text Only | Print | Product List | Glossary On
Versions: 1 2 3 4 5 6 7 8 9 10 11 12 13 14 15 16 17 18 19
000
FTUS43 KGRB 251139
TAFATW
TAF
KATW 251139Z 2512/2612 05012G21KT P6SM SCT005 OVC010
      TEMPO 2512/2515 BKN005
     FM251900 06011G20KT 6SM -RA BR OVC007
     FM252200 06011G20KT 5SM -RA BR OVC007
     FM260600 06009G14KT 2SM -RA BR OVC005
     FM260800 06008KT 1 1/2SM -RA BR OVC003=

USA.gov is the U.S. government's official web portal to all federal, state and local government web resources and services.